LFQB 301030Z AUTO 06012KT 020V100 CAVOK 21/06 Q1020

ElémentsDécodage
LFQB Station météo située sur l'aérodrome de TROYES Barberey
301030Z émis le 30 du mois à 10h30 UTC
AUTO Bulletin édité par un automate
06012KT vent du 060°, 12 noeuds
020V100 vent de direction variable entre 020° et 100°
CAVOK Ceiling And Visibility OK
- Visibilité de 10 Km ou plus
- Pas de nuage au-dessous de 1500m ou au-dessous de l'altitude minimale du secteur la plus élevée (si>1500m) et absence de CB
- pas de temps présent significatif
21/06 température 21°C, point de rosée 06°C
 soit une humidité relative de 38%
Q1020 la pression au niveau de la mer (QNH) est de 1020 hPa